createdAt,value
2022-09-10T00:01:30.017Z,100.00
2022-09-10T00:03:56.851Z,100.00
2022-09-10T00:06:27.867Z,100.00
2022-09-10T00:08:57.727Z,100.00
2022-09-10T00:11:31.121Z,100.00
2022-09-10T00:13:59.749Z,100.00
2022-09-10T00:16:27.650Z,100.00
2022-09-10T00:18:54.274Z,100.00
2022-09-10T00:21:21.710Z,100.00
2022-09-10T00:23:48.786Z,100.00
2022-09-10T00:26:27.491Z,100.00
2022-09-10T00:28:56.351Z,100.00
2022-09-10T00:31:24.077Z,100.00
2022-09-10T00:33:51.307Z,100.00
2022-09-10T00:36:24.176Z,100.00
2022-09-10T00:38:53.347Z,100.00
2022-09-10T00:41:22.481Z,100.00
2022-09-10T00:44:00.612Z,100.00
2022-09-10T00:46:33.550Z,100.00
2022-09-10T00:49:03.714Z,100.00
2022-09-10T00:51:33.590Z,100.00
2022-09-10T00:54:01.004Z,100.00
2022-09-10T00:56:28.905Z,100.00
2022-09-10T00:58:56.043Z,100.00
2022-09-10T01:01:23.191Z,100.00
2022-09-10T01:03:50.696Z,100.00
2022-09-10T01:06:18.418Z,100.00
2022-09-10T01:08:44.923Z,100.00
2022-09-10T01:11:34.989Z,100.00
2022-09-10T01:14:38.169Z,100.00
2022-09-10T01:17:34.395Z,100.00
2022-09-10T01:20:35.058Z,100.00
2022-09-10T01:23:19.704Z,100.00
2022-09-10T01:25:46.114Z,100.00
2022-09-10T01:28:25.414Z,100.00
2022-09-10T01:30:59.299Z,100.00
2022-09-10T01:33:30.950Z,100.00
2022-09-10T01:36:02.245Z,100.00
2022-09-10T01:38:32.486Z,98.74
2022-09-10T01:40:59.454Z,97.92
2022-09-10T01:43:26.009Z,97.54
2022-09-10T01:45:52.515Z,97.35
2022-09-10T01:48:45.449Z,97.43
2022-09-10T01:51:35.075Z,96.15
2022-09-10T01:54:29.431Z,96.67
2022-09-10T01:57:22.222Z,96.46
2022-09-10T02:00:09.330Z,96.47
2022-09-10T02:02:44.222Z,96.54
2022-09-10T02:05:12.350Z,96.11
2022-09-10T02:07:39.558Z,97.24
2022-09-10T02:10:09.121Z,98.15
2022-09-10T02:12:36.804Z,97.48
2022-09-10T02:15:05.298Z,96.93
2022-09-10T02:17:35.796Z,97.49
2022-09-10T02:20:04.288Z,96.70
2022-09-10T02:22:33.852Z,96.37
2022-09-10T02:25:00.402Z,97.69
2022-09-10T02:27:29.995Z,97.76
2022-09-10T02:29:59.629Z,98.40
2022-09-10T02:32:27.160Z,97.87
2022-09-10T02:34:53.658Z,98.28
2022-09-10T02:37:20.233Z,97.62
2022-09-10T02:39:46.829Z,96.72
2022-09-10T02:42:16.950Z,95.97
2022-09-10T02:44:44.824Z,96.83
2022-09-10T02:47:11.338Z,97.82
2022-09-10T02:49:37.819Z,96.56
2022-09-10T02:52:04.637Z,93.16
2022-09-10T02:54:31.165Z,91.93
2022-09-10T02:56:57.643Z,92.02
2022-09-10T02:59:25.135Z,90.02
2022-09-10T03:01:51.962Z,89.26
2022-09-10T03:04:18.510Z,87.31
2022-09-10T03:06:45.282Z,82.81
2022-09-10T03:09:11.760Z,84.38
2022-09-10T03:11:40.662Z,85.19
2022-09-10T03:14:10.266Z,86.45
2022-09-10T03:16:36.844Z,86.60
2022-09-10T03:19:03.575Z,84.28
2022-09-10T03:21:30.150Z,82.58
2022-09-10T03:23:57.324Z,84.91
2022-09-10T03:26:27.958Z,85.91
2022-09-10T03:28:54.470Z,85.43
2022-09-10T03:31:21.742Z,85.11
2022-09-10T03:33:49.176Z,84.64
2022-09-10T03:36:15.830Z,83.72
2022-09-10T03:38:42.760Z,84.33
2022-09-10T03:41:09.772Z,84.95
2022-09-10T03:43:36.346Z,85.33
2022-09-10T03:46:03.278Z,85.02
2022-09-10T03:48:29.992Z,83.93
2022-09-10T03:50:56.781Z,84.61
2022-09-10T03:53:23.908Z,86.33
2022-09-10T03:55:51.856Z,85.36
2022-09-10T03:58:19.227Z,84.32
2022-09-10T04:00:46.550Z,84.25
2022-09-10T04:03:14.558Z,84.35
2022-09-10T04:05:44.100Z,83.79
2022-09-10T04:08:12.220Z,83.37
2022-09-10T04:10:39.902Z,81.91
2022-09-10T04:13:07.140Z,83.86
2022-09-10T04:15:34.375Z,83.94
2022-09-10T04:18:01.076Z,83.70
2022-09-10T04:20:27.745Z,83.91
2022-09-10T04:22:55.101Z,84.01
2022-09-10T04:25:21.647Z,83.49
2022-09-10T04:27:49.040Z,84.23
2022-09-10T04:30:15.883Z,85.67
2022-09-10T04:32:42.819Z,85.80
2022-09-10T04:35:09.624Z,86.20
2022-09-10T04:37:36.114Z,88.07
2022-09-10T04:40:03.715Z,86.93
2022-09-10T04:42:31.883Z,86.70
2022-09-10T04:44:59.222Z,83.52
2022-09-10T04:47:26.188Z,85.00
2022-09-10T04:49:52.737Z,86.68
2022-09-10T04:52:22.694Z,86.57
2022-09-10T04:54:49.475Z,86.73
2022-09-10T04:57:16.091Z,88.34
2022-09-10T04:59:42.808Z,88.56
2022-09-10T05:02:09.376Z,87.05
2022-09-10T05:04:36.176Z,86.07
2022-09-10T05:07:02.685Z,86.24
2022-09-10T05:09:31.323Z,87.23
2022-09-10T05:11:58.222Z,87.77
2022-09-10T05:14:25.500Z,86.44
2022-09-10T05:16:52.493Z,86.15
2022-09-10T05:19:21.398Z,85.71
2022-09-10T05:21:48.534Z,86.12
2022-09-10T05:24:15.571Z,85.30
2022-09-10T05:26:42.677Z,83.03
2022-09-10T05:29:11.310Z,83.81
2022-09-10T05:31:37.926Z,85.87
2022-09-10T05:34:04.571Z,84.83
2022-09-10T05:36:32.088Z,84.45
2022-09-10T05:39:00.288Z,84.05
2022-09-10T05:41:28.144Z,85.25
2022-09-10T05:43:55.056Z,85.33
2022-09-10T05:46:22.347Z,85.09
2022-09-10T05:48:49.090Z,83.71
2022-09-10T05:51:15.932Z,85.74
2022-09-10T05:53:42.393Z,84.88
2022-09-10T05:56:09.284Z,83.97
2022-09-10T05:58:35.840Z,85.16
2022-09-10T06:01:02.467Z,84.19
2022-09-10T06:03:28.992Z,82.61
2022-09-10T06:05:55.714Z,83.17
2022-09-10T06:08:22.774Z,82.02
2022-09-10T06:10:57.355Z,80.79
2022-09-10T06:13:24.956Z,82.06
2022-09-10T06:15:51.886Z,84.01
2022-09-10T06:18:19.219Z,80.25
2022-09-10T06:20:47.791Z,82.21
2022-09-10T06:23:16.586Z,79.41
2022-09-10T06:25:43.445Z,76.66
2022-09-10T06:28:12.188Z,77.31
2022-09-10T06:30:39.411Z,79.51
2022-09-10T06:33:06.039Z,78.77
2022-09-10T06:35:33.311Z,77.23
2022-09-10T06:37:59.799Z,78.20
2022-09-10T06:40:29.663Z,74.85
2022-09-10T06:42:56.238Z,75.06
2022-09-10T06:45:22.732Z,75.81
2022-09-10T06:48:37.001Z,75.63
2022-09-10T06:50:36.944Z,76.07
2022-09-10T06:53:03.622Z,75.39
2022-09-10T06:55:30.164Z,76.52
2022-09-10T06:57:59.580Z,75.78
2022-09-10T07:00:26.043Z,76.40
2022-09-10T07:02:52.944Z,75.46
2022-09-10T07:05:19.445Z,75.90
2022-09-10T07:07:46.376Z,75.99
2022-09-10T07:10:12.879Z,76.58
2022-09-10T07:12:39.367Z,78.57
2022-09-10T07:15:06.246Z,78.71
2022-09-10T07:17:35.649Z,80.00
2022-09-10T07:20:02.927Z,78.21
2022-09-10T07:22:29.419Z,78.05
2022-09-10T07:24:56.098Z,80.56
2022-09-10T07:27:22.698Z,79.88
2022-09-10T07:29:49.595Z,83.35
2022-09-10T07:32:16.223Z,84.37
2022-09-10T07:34:43.125Z,83.91
2022-09-10T07:37:09.690Z,84.43
2022-09-10T07:39:36.223Z,83.21
2022-09-10T07:42:02.758Z,83.89
2022-09-10T07:44:29.365Z,87.04
2022-09-10T07:46:55.982Z,87.50
2022-09-10T07:49:22.445Z,88.22
2022-09-10T07:51:49.210Z,87.98
2022-09-10T07:54:17.305Z,88.73
2022-09-10T07:56:44.185Z,88.09
2022-09-10T07:59:11.685Z,89.10
2022-09-10T08:01:38.207Z,88.94
2022-09-10T08:04:06.237Z,87.90
2022-09-10T08:06:34.010Z,89.21
2022-09-10T08:09:00.479Z,91.44
2022-09-10T08:11:27.040Z,86.05
2022-09-10T08:13:54.519Z,85.30
2022-09-10T08:16:23.610Z,86.45
2022-09-10T08:18:51.389Z,86.53
2022-09-10T08:21:19.368Z,83.86
2022-09-10T08:23:51.059Z,83.75
2022-09-10T08:26:18.099Z,81.17
2022-09-10T08:28:44.665Z,81.82
2022-09-10T08:31:12.825Z,83.58
2022-09-10T08:33:40.187Z,81.78
2022-09-10T08:36:10.484Z,81.14
2022-09-10T08:38:39.851Z,79.09
2022-09-10T08:41:13.433Z,77.15
2022-09-10T08:43:41.807Z,77.78
2022-09-10T08:46:22.634Z,79.92
2022-09-10T08:49:00.598Z,80.24
2022-09-10T08:51:34.306Z,74.47
2022-09-10T08:54:10.194Z,75.97
2022-09-10T08:56:37.987Z,78.92
2022-09-10T08:59:33.352Z,75.81
2022-09-10T09:02:37.827Z,76.82
2022-09-10T09:05:09.589Z,73.65
2022-09-10T09:07:40.265Z,74.81
2022-09-10T09:10:42.682Z,73.66
2022-09-10T09:13:32.178Z,72.68
2022-09-10T09:16:28.799Z,73.89
2022-09-10T09:19:14.708Z,74.26
2022-09-10T09:21:54.679Z,74.64
2022-09-10T09:24:40.447Z,70.85
2022-09-10T09:27:13.968Z,70.30
2022-09-10T09:29:48.247Z,70.40
2022-09-10T09:32:17.223Z,70.71
2022-09-10T09:34:50.526Z,69.04
2022-09-10T09:37:21.418Z,69.29
2022-09-10T09:39:59.400Z,69.01
2022-09-10T09:42:39.843Z,68.77
2022-09-10T09:45:28.424Z,69.66
2022-09-10T09:47:55.900Z,68.04
2022-09-10T09:50:23.053Z,68.82
2022-09-10T09:52:55.141Z,68.42
2022-09-10T09:55:33.618Z,69.37
2022-09-10T09:58:21.622Z,66.65
2022-09-10T10:01:13.231Z,68.10
2022-09-10T10:03:48.548Z,66.97
2022-09-10T10:06:16.354Z,67.38
2022-09-10T10:08:46.050Z,67.40
2022-09-10T10:11:17.264Z,62.89
2022-09-10T10:13:48.099Z,63.29
2022-09-10T10:16:14.604Z,64.43
2022-09-10T10:18:43.043Z,60.17
2022-09-10T10:21:28.030Z,56.62
2022-09-10T10:23:54.868Z,60.17
2022-09-10T10:26:21.305Z,57.59
2022-09-10T10:28:53.986Z,55.58
2022-09-10T10:31:21.102Z,56.60
2022-09-10T10:34:09.637Z,53.84
2022-09-10T10:37:03.614Z,54.02
2022-09-10T10:39:48.568Z,55.30
2022-09-10T10:42:30.662Z,52.35
2022-09-10T10:45:16.706Z,52.42
2022-09-10T10:48:03.238Z,48.31
2022-09-10T10:51:03.380Z,48.82
2022-09-10T10:54:10.753Z,45.23
2022-09-10T10:56:59.935Z,47.03
2022-09-10T10:59:47.583Z,44.60
2022-09-10T11:02:19.911Z,42.72
2022-09-10T11:04:53.187Z,42.97
2022-09-10T11:07:29.651Z,42.94
2022-09-10T11:10:23.578Z,44.06
2022-09-10T11:13:22.198Z,43.63
2022-09-10T11:15:59.524Z,41.76
2022-09-10T11:18:34.271Z,42.68
2022-09-10T11:21:20.958Z,43.03
2022-09-10T11:24:00.501Z,40.37
2022-09-10T11:26:41.563Z,39.78
2022-09-10T11:29:32.250Z,38.92
2022-09-10T11:32:01.841Z,40.00
2022-09-10T11:34:35.468Z,39.33
2022-09-10T11:37:20.031Z,38.34
2022-09-10T11:39:52.452Z,40.32
2022-09-10T11:42:34.093Z,38.81
2022-09-10T11:45:36.729Z,37.33
2022-09-10T11:48:11.426Z,37.77
2022-09-10T11:50:46.715Z,38.80
2022-09-10T11:53:16.290Z,36.99
2022-09-10T11:56:05.058Z,38.05
2022-09-10T11:59:08.757Z,34.94
2022-09-10T12:02:10.669Z,35.30
2022-09-10T12:05:14.519Z,33.46
2022-09-10T12:07:53.840Z,31.83
2022-09-10T12:10:31.552Z,32.80
2022-09-10T12:12:58.895Z,34.30
2022-09-10T12:15:37.157Z,35.63
2022-09-10T12:18:13.936Z,35.71
2022-09-10T12:20:52.072Z,33.23
2022-09-10T12:23:28.118Z,30.97
2022-09-10T12:26:08.842Z,30.77
2022-09-10T12:28:41.747Z,30.16
2022-09-10T12:31:10.103Z,30.71
2022-09-10T12:34:09.094Z,29.05
2022-09-10T12:36:35.493Z,28.73
2022-09-10T12:39:25.855Z,28.43
2022-09-10T12:41:53.097Z,29.85
2022-09-10T12:44:25.367Z,28.15
2022-09-10T12:47:13.755Z,28.85
2022-09-10T12:50:01.170Z,27.90
2022-09-10T12:52:35.078Z,27.84
2022-09-10T12:55:28.944Z,27.78
2022-09-10T12:58:32.794Z,27.45
2022-09-10T13:01:11.128Z,28.30
2022-09-10T13:03:54.938Z,28.86
2022-09-10T13:06:35.871Z,31.04
2022-09-10T13:09:05.819Z,30.65
2022-09-10T13:11:35.772Z,31.96
2022-09-10T13:14:06.199Z,32.57
2022-09-10T13:16:32.855Z,34.10
2022-09-10T13:19:14.576Z,33.18
2022-09-10T13:21:41.039Z,32.12
2022-09-10T13:24:35.700Z,31.15
2022-09-10T13:27:17.375Z,29.82
2022-09-10T13:29:47.171Z,27.64
2022-09-10T13:32:37.543Z,27.44
2022-09-10T13:35:17.076Z,27.23
2022-09-10T13:37:59.365Z,25.86
2022-09-10T13:40:38.693Z,26.17
2022-09-10T13:43:05.481Z,28.11
2022-09-10T13:45:46.852Z,27.57
2022-09-10T13:48:23.859Z,28.40
2022-09-10T13:51:15.302Z,29.76
2022-09-10T13:53:46.956Z,32.02
2022-09-10T13:56:19.197Z,30.78
2022-09-10T13:58:52.153Z,31.55
2022-09-10T14:01:18.779Z,29.35
2022-09-10T14:03:45.501Z,30.28
2022-09-10T14:06:18.795Z,29.54
2022-09-10T14:08:50.514Z,27.45
2022-09-10T14:11:25.194Z,26.65
2022-09-10T14:14:06.352Z,27.21
2022-09-10T14:16:55.410Z,25.98
2022-09-10T14:19:21.851Z,26.42
2022-09-10T14:21:50.074Z,26.81
2022-09-10T14:24:30.617Z,26.76
2022-09-10T14:27:15.634Z,27.62
2022-09-10T14:29:42.963Z,26.83
2022-09-10T14:32:26.495Z,25.77
2022-09-10T14:34:53.036Z,26.78
2022-09-10T14:37:39.562Z,27.46
2022-09-10T14:40:20.875Z,27.53
2022-09-10T14:42:49.490Z,27.92
2022-09-10T14:45:42.511Z,26.81
2022-09-10T14:48:29.518Z,26.12
2022-09-10T14:51:12.827Z,26.07
2022-09-10T14:53:40.893Z,26.57
2022-09-10T14:56:22.350Z,26.38
2022-09-10T14:59:05.955Z,26.08
2022-09-10T15:01:32.717Z,26.45
2022-09-10T15:04:02.074Z,24.44
2022-09-10T15:06:28.730Z,25.47
2022-09-10T15:08:58.330Z,24.75
2022-09-10T15:11:28.179Z,25.38
2022-09-10T15:13:56.112Z,25.44
2022-09-10T15:16:25.826Z,24.21
2022-09-10T15:18:52.313Z,25.27
2022-09-10T15:21:19.394Z,24.17
2022-09-10T15:23:48.256Z,26.18
2022-09-10T15:26:15.215Z,25.88
2022-09-10T15:28:42.054Z,25.19
2022-09-10T15:31:09.244Z,24.27
2022-09-10T15:33:36.179Z,24.52
2022-09-10T15:36:03.340Z,24.56
2022-09-10T15:38:29.914Z,25.74
2022-09-10T15:41:08.347Z,25.82
2022-09-10T15:43:38.833Z,25.26
2022-09-10T15:46:06.611Z,26.40
2022-09-10T15:48:33.654Z,26.21
2022-09-10T15:51:02.767Z,27.26
2022-09-10T15:53:32.838Z,27.60
2022-09-10T15:56:05.393Z,28.08
2022-09-10T15:58:32.002Z,29.24
2022-09-10T16:01:07.488Z,30.54
2022-09-10T16:03:34.835Z,31.01
2022-09-10T16:06:03.271Z,31.55
2022-09-10T16:08:30.731Z,32.40
2022-09-10T16:10:57.911Z,33.67
2022-09-10T16:13:26.004Z,34.34
2022-09-10T16:16:03.363Z,35.25
2022-09-10T16:18:31.776Z,35.70
2022-09-10T16:21:18.485Z,35.85
2022-09-10T16:23:49.227Z,35.89
2022-09-10T16:26:19.906Z,36.56
2022-09-10T16:29:14.107Z,37.35
2022-09-10T16:31:41.075Z,37.40
2022-09-10T16:34:10.939Z,37.58
2022-09-10T16:36:39.202Z,38.39
2022-09-10T16:39:12.306Z,38.89
2022-09-10T16:41:40.355Z,39.36
2022-09-10T16:44:07.222Z,39.60
2022-09-10T16:46:34.366Z,40.06
2022-09-10T16:49:01.549Z,40.16
2022-09-10T16:51:28.870Z,40.12
2022-09-10T16:54:06.363Z,40.69
2022-09-10T16:56:40.013Z,40.48
2022-09-10T16:59:08.818Z,41.09
2022-09-10T17:01:36.642Z,41.34
2022-09-10T17:04:04.662Z,41.78
2022-09-10T17:06:31.795Z,42.37
2022-09-10T17:09:00.590Z,42.84
2022-09-10T17:11:32.738Z,42.51
2022-09-10T17:14:03.057Z,42.29
2022-09-10T17:16:37.754Z,42.44
2022-09-10T17:19:16.231Z,43.10
2022-09-10T17:21:44.928Z,41.87
2022-09-10T17:24:13.214Z,42.11
2022-09-10T17:26:41.283Z,41.65
2022-09-10T17:29:18.901Z,41.83
2022-09-10T17:31:49.383Z,42.17
2022-09-10T17:34:16.518Z,41.90
2022-09-10T17:36:45.417Z,41.99
2022-09-10T17:39:13.000Z,42.39
2022-09-10T17:41:40.491Z,42.51
2022-09-10T17:44:08.133Z,42.75
2022-09-10T17:46:36.075Z,43.31
2022-09-10T17:49:03.832Z,43.15
2022-09-10T17:51:32.686Z,43.02
2022-09-10T17:53:59.446Z,42.90
2022-09-10T17:56:27.019Z,43.25
2022-09-10T17:58:58.468Z,43.13
2022-09-10T18:01:27.586Z,44.19
2022-09-10T18:03:54.815Z,44.22
2022-09-10T18:06:22.151Z,44.54
2022-09-10T18:08:50.428Z,44.50
2022-09-10T18:11:22.714Z,44.76
2022-09-10T18:13:52.146Z,45.10
2022-09-10T18:16:22.271Z,45.12
2022-09-10T18:19:01.037Z,45.83
2022-09-10T18:21:31.310Z,45.68
2022-09-10T18:24:00.527Z,46.50
2022-09-10T18:26:29.361Z,46.92
2022-09-10T18:28:57.600Z,47.10
2022-09-10T18:31:25.029Z,47.39
2022-09-10T18:33:53.576Z,48.09
2022-09-10T18:36:20.586Z,48.07
2022-09-10T18:38:47.421Z,48.14
2022-09-10T18:41:36.010Z,48.66
2022-09-10T18:44:04.408Z,49.04
2022-09-10T18:46:32.987Z,49.76
2022-09-10T18:49:00.026Z,50.56
2022-09-10T18:51:28.453Z,51.00
2022-09-10T18:54:00.312Z,51.60
2022-09-10T18:56:30.146Z,52.61
2022-09-10T18:59:03.159Z,52.99
2022-09-10T19:01:31.174Z,53.17
2022-09-10T19:03:58.320Z,53.83
2022-09-10T19:06:36.608Z,53.89
2022-09-10T19:09:09.496Z,54.13
2022-09-10T19:11:39.339Z,54.59
2022-09-10T19:14:08.689Z,55.12
2022-09-10T19:16:36.219Z,55.25
2022-09-10T19:19:05.714Z,55.43
2022-09-10T19:21:35.310Z,55.32
2022-09-10T19:24:03.705Z,56.59
2022-09-10T19:26:33.295Z,55.72
2022-09-10T19:29:01.677Z,55.83
2022-09-10T19:31:30.078Z,56.39
2022-09-10T19:34:03.014Z,56.47
2022-09-10T19:36:31.711Z,56.44
2022-09-10T19:38:59.586Z,56.63
2022-09-10T19:41:26.253Z,56.49
2022-09-10T19:43:53.910Z,57.68
2022-09-10T19:46:22.561Z,57.60
2022-09-10T19:48:49.384Z,57.61
2022-09-10T19:51:20.117Z,57.51
2022-09-10T19:53:48.149Z,57.39
2022-09-10T19:56:20.948Z,57.20
2022-09-10T19:58:49.983Z,57.54
2022-09-10T20:01:19.794Z,57.68
2022-09-10T20:03:48.218Z,58.55
2022-09-10T20:06:18.334Z,58.61
2022-09-10T20:08:47.239Z,59.26
2022-09-10T20:11:16.823Z,59.13
2022-09-10T20:13:45.162Z,58.55
2022-09-10T20:16:13.000Z,59.66
2022-09-10T20:18:39.935Z,60.81
2022-09-10T20:21:21.078Z,61.00
2022-09-10T20:23:50.987Z,61.76
2022-09-10T20:26:22.550Z,62.64
2022-09-10T20:28:55.710Z,61.76
2022-09-10T20:31:24.003Z,61.32
2022-09-10T20:33:55.015Z,61.47
2022-09-10T20:36:22.857Z,61.94
2022-09-10T20:38:50.546Z,61.34
2022-09-10T20:41:17.237Z,61.46
2022-09-10T20:43:43.798Z,61.55
2022-09-10T20:46:15.927Z,62.21
2022-09-10T20:48:48.789Z,62.00
2022-09-10T20:51:20.501Z,64.44
2022-09-10T20:53:47.967Z,64.15
2022-09-10T20:56:18.066Z,66.87
2022-09-10T20:58:45.454Z,63.24
2022-09-10T21:01:17.414Z,64.82
2022-09-10T21:03:43.974Z,64.47
2022-09-10T21:06:11.894Z,63.78
2022-09-10T21:08:40.585Z,63.83
2022-09-10T21:11:16.113Z,63.65
2022-09-10T21:13:45.180Z,65.52
2022-09-10T21:16:14.639Z,64.21
2022-09-10T21:18:42.348Z,63.54
2022-09-10T21:21:14.316Z,64.07
2022-09-10T21:23:45.625Z,63.28
2022-09-10T21:26:13.582Z,62.96
2022-09-10T21:28:41.570Z,63.30
2022-09-10T21:31:09.525Z,62.88
2022-09-10T21:33:36.594Z,62.77
2022-09-10T21:36:06.407Z,62.75
2022-09-10T21:38:35.138Z,62.91
2022-09-10T21:41:03.692Z,62.48
2022-09-10T21:43:37.806Z,62.08
2022-09-10T21:46:05.630Z,62.76
2022-09-10T21:48:35.846Z,62.66
2022-09-10T21:51:05.792Z,62.72
2022-09-10T21:53:33.494Z,63.43
2022-09-10T21:56:01.515Z,62.86
2022-09-10T21:58:30.394Z,63.24
2022-09-10T22:00:58.560Z,63.32
2022-09-10T22:03:26.409Z,63.50
2022-09-10T22:05:52.948Z,63.50
2022-09-10T22:08:19.484Z,63.51
2022-09-10T22:10:46.374Z,63.74
2022-09-10T22:13:12.865Z,64.28
2022-09-10T22:15:40.503Z,64.07
2022-09-10T22:18:08.300Z,64.19
2022-09-10T22:20:36.322Z,64.34
2022-09-10T22:23:03.855Z,64.40
2022-09-10T22:25:31.206Z,64.72
2022-09-10T22:27:58.297Z,65.05
2022-09-10T22:30:27.810Z,65.21
2022-09-10T22:32:57.967Z,65.60
2022-09-10T22:35:26.156Z,65.59
2022-09-10T22:37:56.745Z,65.71
2022-09-10T22:40:24.464Z,65.85
2022-09-10T22:42:51.682Z,65.81
2022-09-10T22:45:20.749Z,66.47
2022-09-10T22:47:47.994Z,66.54
2022-09-10T22:50:15.286Z,67.17
2022-09-10T22:52:43.657Z,67.31
2022-09-10T22:55:10.434Z,67.55
2022-09-10T22:57:38.525Z,67.84
2022-09-10T23:00:06.122Z,68.76
2022-09-10T23:02:32.606Z,68.94
2022-09-10T23:04:59.913Z,68.64
2022-09-10T23:07:26.410Z,69.63
2022-09-10T23:09:52.897Z,69.33
2022-09-10T23:12:22.065Z,69.58
2022-09-10T23:14:48.619Z,69.75
2022-09-10T23:17:18.459Z,69.87
2022-09-10T23:19:47.162Z,70.22
2022-09-10T23:22:14.031Z,69.79
2022-09-10T23:24:40.598Z,70.09
2022-09-10T23:27:07.078Z,70.70
2022-09-10T23:29:33.581Z,70.46
2022-09-10T23:32:00.083Z,69.99
2022-09-10T23:34:26.615Z,70.83
2022-09-10T23:36:53.806Z,71.50
2022-09-10T23:39:22.714Z,71.47
2022-09-10T23:41:50.833Z,71.57
2022-09-10T23:44:17.674Z,72.33
2022-09-10T23:46:48.073Z,73.89
2022-09-10T23:49:14.954Z,72.35
2022-09-10T23:51:41.698Z,71.98
2022-09-10T23:54:09.991Z,72.80
2022-09-10T23:56:37.185Z,72.76
2022-09-10T23:59:03.833Z,73.47
